sensor_id;sensor_type;location;lat;lon;timestamp;P1;durP1;ratioP1;P2;durP2;ratioP2
17145;SDS011;8688;54.444;18.444;2024-03-17T00:02:16;8.60;;;1.77;;
17145;SDS011;8688;54.444;18.444;2024-03-17T00:04:44;10.83;;;1.97;;
17145;SDS011;8688;54.444;18.444;2024-03-17T00:07:11;11.60;;;2.13;;
17145;SDS011;8688;54.444;18.444;2024-03-17T00:09:41;10.80;;;2.00;;
17145;SDS011;8688;54.444;18.444;2024-03-17T00:12:08;12.10;;;2.13;;
17145;SDS011;8688;54.444;18.444;2024-03-17T00:14:36;10.17;;;1.87;;
17145;SDS011;8688;54.444;18.444;2024-03-17T00:17:04;14.30;;;1.97;;
17145;SDS011;8688;54.444;18.444;2024-03-17T00:19:32;13.87;;;2.13;;
17145;SDS011;8688;54.444;18.444;2024-03-17T00:21:58;12.77;;;2.17;;
17145;SDS011;8688;54.444;18.444;2024-03-17T00:24:26;15.30;;;1.63;;
17145;SDS011;8688;54.444;18.444;2024-03-17T00:27:01;10.17;;;2.00;;
17145;SDS011;8688;54.444;18.444;2024-03-17T00:29:29;11.87;;;1.90;;
17145;SDS011;8688;54.444;18.444;2024-03-17T00:31:57;10.90;;;1.77;;
17145;SDS011;8688;54.444;18.444;2024-03-17T00:34:25;12.80;;;2.70;;
17145;SDS011;8688;54.444;18.444;2024-03-17T00:36:52;11.93;;;1.90;;
17145;SDS011;8688;54.444;18.444;2024-03-17T00:39:20;8.47;;;1.60;;
17145;SDS011;8688;54.444;18.444;2024-03-17T00:41:48;9.57;;;2.07;;
17145;SDS011;8688;54.444;18.444;2024-03-17T00:44:17;8.30;;;1.40;;
17145;SDS011;8688;54.444;18.444;2024-03-17T00:46:45;11.97;;;1.80;;
17145;SDS011;8688;54.444;18.444;2024-03-17T00:49:13;10.40;;;1.77;;
17145;SDS011;8688;54.444;18.444;2024-03-17T00:51:40;11.40;;;1.63;;
17145;SDS011;8688;54.444;18.444;2024-03-17T00:54:08;13.10;;;1.93;;
17145;SDS011;8688;54.444;18.444;2024-03-17T00:56:35;19.97;;;2.23;;
17145;SDS011;8688;54.444;18.444;2024-03-17T00:59:05;9.40;;;1.90;;
17145;SDS011;8688;54.444;18.444;2024-03-17T01:01:33;7.80;;;1.63;;
17145;SDS011;8688;54.444;18.444;2024-03-17T01:04:01;8.73;;;1.70;;
17145;SDS011;8688;54.444;18.444;2024-03-17T01:06:29;16.53;;;2.10;;
17145;SDS011;8688;54.444;18.444;2024-03-17T01:08:57;9.40;;;1.60;;
17145;SDS011;8688;54.444;18.444;2024-03-17T01:11:24;10.43;;;1.63;;
17145;SDS011;8688;54.444;18.444;2024-03-17T01:13:52;6.07;;;1.30;;
17145;SDS011;8688;54.444;18.444;2024-03-17T01:16:19;6.00;;;1.03;;
17145;SDS011;8688;54.444;18.444;2024-03-17T01:18:48;6.80;;;1.57;;
17145;SDS011;8688;54.444;18.444;2024-03-17T01:21:16;5.90;;;0.80;;
17145;SDS011;8688;54.444;18.444;2024-03-17T01:23:42;5.23;;;0.80;;
17145;SDS011;8688;54.444;18.444;2024-03-17T01:26:11;6.17;;;1.33;;
17145;SDS011;8688;54.444;18.444;2024-03-17T01:28:37;6.83;;;1.13;;
17145;SDS011;8688;54.444;18.444;2024-03-17T01:31:05;7.63;;;1.10;;
17145;SDS011;8688;54.444;18.444;2024-03-17T01:33:32;4.47;;;1.13;;
17145;SDS011;8688;54.444;18.444;2024-03-17T01:36:01;8.73;;;1.30;;
17145;SDS011;8688;54.444;18.444;2024-03-17T01:38:28;8.67;;;1.30;;
17145;SDS011;8688;54.444;18.444;2024-03-17T01:40:56;6.90;;;1.40;;
17145;SDS011;8688;54.444;18.444;2024-03-17T01:43:22;9.10;;;1.27;;
17145;SDS011;8688;54.444;18.444;2024-03-17T01:45:50;6.33;;;0.93;;
17145;SDS011;8688;54.444;18.444;2024-03-17T01:48:18;7.27;;;1.17;;
17145;SDS011;8688;54.444;18.444;2024-03-17T01:50:48;9.90;;;1.43;;
17145;SDS011;8688;54.444;18.444;2024-03-17T01:53:19;7.23;;;1.13;;
17145;SDS011;8688;54.444;18.444;2024-03-17T01:55:47;8.13;;;1.50;;
17145;SDS011;8688;54.444;18.444;2024-03-17T01:58:14;1.23;;;0.57;;
17145;SDS011;8688;54.444;18.444;2024-03-17T02:00:42;4.07;;;0.97;;
17145;SDS011;8688;54.444;18.444;2024-03-17T02:03:09;4.80;;;1.43;;
17145;SDS011;8688;54.444;18.444;2024-03-17T02:05:39;4.33;;;1.00;;
17145;SDS011;8688;54.444;18.444;2024-03-17T02:08:05;7.13;;;1.10;;
17145;SDS011;8688;54.444;18.444;2024-03-17T02:10:35;7.13;;;1.20;;
17145;SDS011;8688;54.444;18.444;2024-03-17T02:13:01;3.20;;;1.00;;
17145;SDS011;8688;54.444;18.444;2024-03-17T02:15:30;3.87;;;1.17;;
17145;SDS011;8688;54.444;18.444;2024-03-17T02:17:56;7.43;;;1.33;;
17145;SDS011;8688;54.444;18.444;2024-03-17T02:20:24;3.93;;;0.93;;
17145;SDS011;8688;54.444;18.444;2024-03-17T02:23:07;3.93;;;0.70;;
17145;SDS011;8688;54.444;18.444;2024-03-17T02:25:35;5.23;;;1.10;;
17145;SDS011;8688;54.444;18.444;2024-03-17T02:28:02;6.47;;;1.00;;
17145;SDS011;8688;54.444;18.444;2024-03-17T02:30:30;2.47;;;0.77;;
17145;SDS011;8688;54.444;18.444;2024-03-17T02:32:57;2.93;;;0.60;;
17145;SDS011;8688;54.444;18.444;2024-03-17T02:35:24;4.40;;;0.87;;
17145;SDS011;8688;54.444;18.444;2024-03-17T02:37:51;3.17;;;0.70;;
17145;SDS011;8688;54.444;18.444;2024-03-17T02:40:20;1.77;;;0.67;;
17145;SDS011;8688;54.444;18.444;2024-03-17T02:42:47;3.23;;;0.60;;
17145;SDS011;8688;54.444;18.444;2024-03-17T02:45:16;2.57;;;0.57;;
17145;SDS011;8688;54.444;18.444;2024-03-17T02:47:43;2.13;;;0.80;;
17145;SDS011;8688;54.444;18.444;2024-03-17T02:50:11;2.40;;;0.80;;
17145;SDS011;8688;54.444;18.444;2024-03-17T02:52:38;2.07;;;0.63;;
17145;SDS011;8688;54.444;18.444;2024-03-17T02:55:06;1.67;;;0.70;;
17145;SDS011;8688;54.444;18.444;2024-03-17T02:57:35;1.53;;;0.63;;
17145;SDS011;8688;54.444;18.444;2024-03-17T03:00:02;1.63;;;0.73;;
17145;SDS011;8688;54.444;18.444;2024-03-17T03:02:34;3.30;;;0.70;;
17145;SDS011;8688;54.444;18.444;2024-03-17T03:05:01;2.80;;;0.70;;
17145;SDS011;8688;54.444;18.444;2024-03-17T03:07:30;3.40;;;0.90;;
17145;SDS011;8688;54.444;18.444;2024-03-17T03:09:58;3.00;;;0.77;;
17145;SDS011;8688;54.444;18.444;2024-03-17T03:12:26;2.07;;;0.67;;
17145;SDS011;8688;54.444;18.444;2024-03-17T03:14:55;2.40;;;0.90;;
17145;SDS011;8688;54.444;18.444;2024-03-17T03:17:23;2.03;;;0.80;;
17145;SDS011;8688;54.444;18.444;2024-03-17T03:19:51;3.50;;;0.90;;
17145;SDS011;8688;54.444;18.444;2024-03-17T03:22:20;2.63;;;1.30;;
17145;SDS011;8688;54.444;18.444;2024-03-17T03:24:49;3.47;;;0.77;;
17145;SDS011;8688;54.444;18.444;2024-03-17T03:27:19;1.17;;;0.73;;
17145;SDS011;8688;54.444;18.444;2024-03-17T03:29:46;1.23;;;0.80;;
17145;SDS011;8688;54.444;18.444;2024-03-17T03:32:16;2.53;;;0.80;;
17145;SDS011;8688;54.444;18.444;2024-03-17T03:34:45;2.23;;;0.80;;
17145;SDS011;8688;54.444;18.444;2024-03-17T03:37:14;3.90;;;0.93;;
17145;SDS011;8688;54.444;18.444;2024-03-17T03:39:41;2.50;;;0.70;;
17145;SDS011;8688;54.444;18.444;2024-03-17T03:42:09;2.67;;;0.90;;
17145;SDS011;8688;54.444;18.444;2024-03-17T03:44:37;3.10;;;0.87;;
17145;SDS011;8688;54.444;18.444;2024-03-17T03:47:05;3.13;;;0.93;;
17145;SDS011;8688;54.444;18.444;2024-03-17T03:49:34;2.40;;;0.70;;
17145;SDS011;8688;54.444;18.444;2024-03-17T03:52:03;2.30;;;0.90;;
17145;SDS011;8688;54.444;18.444;2024-03-17T03:54:31;4.43;;;0.80;;
17145;SDS011;8688;54.444;18.444;2024-03-17T03:56:58;2.87;;;0.70;;
17145;SDS011;8688;54.444;18.444;2024-03-17T03:59:26;1.77;;;0.80;;
17145;SDS011;8688;54.444;18.444;2024-03-17T04:01:54;2.97;;;1.00;;
17145;SDS011;8688;54.444;18.444;2024-03-17T04:04:22;4.83;;;1.00;;
17145;SDS011;8688;54.444;18.444;2024-03-17T04:06:53;2.07;;;0.97;;
17145;SDS011;8688;54.444;18.444;2024-03-17T04:09:29;2.40;;;0.60;;
17145;SDS011;8688;54.444;18.444;2024-03-17T04:11:56;2.47;;;0.83;;
17145;SDS011;8688;54.444;18.444;2024-03-17T04:14:24;4.93;;;1.00;;
17145;SDS011;8688;54.444;18.444;2024-03-17T04:16:53;3.53;;;1.13;;
17145;SDS011;8688;54.444;18.444;2024-03-17T04:19:24;3.80;;;0.80;;
17145;SDS011;8688;54.444;18.444;2024-03-17T04:21:54;2.57;;;0.63;;
17145;SDS011;8688;54.444;18.444;2024-03-17T04:24:21;1.50;;;0.87;;
17145;SDS011;8688;54.444;18.444;2024-03-17T04:26:50;4.83;;;0.93;;
17145;SDS011;8688;54.444;18.444;2024-03-17T04:29:17;4.07;;;1.00;;
17145;SDS011;8688;54.444;18.444;2024-03-17T04:31:45;0.93;;;0.70;;
17145;SDS011;8688;54.444;18.444;2024-03-17T04:34:14;1.30;;;0.63;;
17145;SDS011;8688;54.444;18.444;2024-03-17T04:36:41;2.10;;;0.90;;
17145;SDS011;8688;54.444;18.444;2024-03-17T04:39:11;2.43;;;0.90;;
17145;SDS011;8688;54.444;18.444;2024-03-17T04:41:38;1.53;;;0.73;;
17145;SDS011;8688;54.444;18.444;2024-03-17T04:44:08;2.67;;;1.00;;
17145;SDS011;8688;54.444;18.444;2024-03-17T04:46:36;2.77;;;0.90;;
17145;SDS011;8688;54.444;18.444;2024-03-17T04:49:04;2.60;;;0.80;;
17145;SDS011;8688;54.444;18.444;2024-03-17T04:51:31;1.37;;;0.60;;
17145;SDS011;8688;54.444;18.444;2024-03-17T04:54:00;1.60;;;0.77;;
17145;SDS011;8688;54.444;18.444;2024-03-17T04:56:30;1.70;;;0.70;;
17145;SDS011;8688;54.444;18.444;2024-03-17T04:58:57;1.37;;;0.80;;
17145;SDS011;8688;54.444;18.444;2024-03-17T05:01:25;1.53;;;0.73;;
17145;SDS011;8688;54.444;18.444;2024-03-17T05:03:53;4.13;;;0.60;;
17145;SDS011;8688;54.444;18.444;2024-03-17T05:06:20;1.13;;;0.60;;
17145;SDS011;8688;54.444;18.444;2024-03-17T05:08:48;0.80;;;0.60;;
17145;SDS011;8688;54.444;18.444;2024-03-17T05:11:16;1.53;;;0.77;;
17145;SDS011;8688;54.444;18.444;2024-03-17T05:13:45;1.23;;;0.70;;
17145;SDS011;8688;54.444;18.444;2024-03-17T05:16:14;1.27;;;0.80;;
17145;SDS011;8688;54.444;18.444;2024-03-17T05:18:42;1.63;;;0.87;;
17145;SDS011;8688;54.444;18.444;2024-03-17T05:21:10;1.60;;;0.80;;
17145;SDS011;8688;54.444;18.444;2024-03-17T05:23:37;1.40;;;0.87;;
17145;SDS011;8688;54.444;18.444;2024-03-17T05:26:05;2.43;;;1.00;;
17145;SDS011;8688;54.444;18.444;2024-03-17T05:28:33;1.10;;;0.63;;
17145;SDS011;8688;54.444;18.444;2024-03-17T05:31:02;1.57;;;0.80;;
17145;SDS011;8688;54.444;18.444;2024-03-17T05:33:30;1.50;;;1.03;;
17145;SDS011;8688;54.444;18.444;2024-03-17T05:35:58;1.50;;;0.93;;
17145;SDS011;8688;54.444;18.444;2024-03-17T05:38:28;3.17;;;0.97;;
17145;SDS011;8688;54.444;18.444;2024-03-17T05:40:57;1.17;;;0.60;;
17145;SDS011;8688;54.444;18.444;2024-03-17T05:43:26;0.90;;;0.73;;
17145;SDS011;8688;54.444;18.444;2024-03-17T05:45:56;1.40;;;0.77;;
17145;SDS011;8688;54.444;18.444;2024-03-17T05:48:26;1.07;;;0.77;;
17145;SDS011;8688;54.444;18.444;2024-03-17T05:50:54;1.97;;;0.80;;
17145;SDS011;8688;54.444;18.444;2024-03-17T05:53:22;0.70;;;0.50;;
17145;SDS011;8688;54.444;18.444;2024-03-17T05:55:51;0.30;;;0.30;;
17145;SDS011;8688;54.444;18.444;2024-03-17T05:58:18;0.40;;;0.10;;
17145;SDS011;8688;54.444;18.444;2024-03-17T06:00:46;1.00;;;0.30;;
17145;SDS011;8688;54.444;18.444;2024-03-17T06:03:14;3.03;;;0.30;;
17145;SDS011;8688;54.444;18.444;2024-03-17T06:05:44;0.30;;;0.20;;
17145;SDS011;8688;54.444;18.444;2024-03-17T06:08:12;1.57;;;0.30;;
17145;SDS011;8688;54.444;18.444;2024-03-17T06:10:42;0.57;;;0.53;;
17145;SDS011;8688;54.444;18.444;2024-03-17T06:13:11;0.43;;;0.30;;
17145;SDS011;8688;54.444;18.444;2024-03-17T06:15:42;0.30;;;0.30;;
17145;SDS011;8688;54.444;18.444;2024-03-17T06:18:11;1.27;;;0.30;;
17145;SDS011;8688;54.444;18.444;2024-03-17T06:20:43;0.40;;;0.20;;
17145;SDS011;8688;54.444;18.444;2024-03-17T06:23:12;1.43;;;0.20;;
17145;SDS011;8688;54.444;18.444;2024-03-17T06:25:41;0.20;;;0.20;;
17145;SDS011;8688;54.444;18.444;2024-03-17T06:28:09;1.47;;;0.20;;
17145;SDS011;8688;54.444;18.444;2024-03-17T06:30:39;0.23;;;0.20;;
17145;SDS011;8688;54.444;18.444;2024-03-17T06:33:07;0.30;;;0.30;;
17145;SDS011;8688;54.444;18.444;2024-03-17T06:35:36;0.50;;;0.40;;
17145;SDS011;8688;54.444;18.444;2024-03-17T06:38:05;0.50;;;0.43;;
17145;SDS011;8688;54.444;18.444;2024-03-17T06:40:35;0.87;;;0.40;;
17145;SDS011;8688;54.444;18.444;2024-03-17T06:43:03;1.20;;;0.50;;
17145;SDS011;8688;54.444;18.444;2024-03-17T06:45:31;0.33;;;0.33;;
17145;SDS011;8688;54.444;18.444;2024-03-17T06:47:59;0.40;;;0.20;;
17145;SDS011;8688;54.444;18.444;2024-03-17T06:50:26;0.70;;;0.50;;
17145;SDS011;8688;54.444;18.444;2024-03-17T06:52:54;0.90;;;0.47;;
17145;SDS011;8688;54.444;18.444;2024-03-17T06:55:24;1.77;;;0.50;;
17145;SDS011;8688;54.444;18.444;2024-03-17T06:57:53;0.83;;;0.40;;
17145;SDS011;8688;54.444;18.444;2024-03-17T07:00:21;0.70;;;0.40;;
17145;SDS011;8688;54.444;18.444;2024-03-17T07:02:50;0.97;;;0.30;;
17145;SDS011;8688;54.444;18.444;2024-03-17T07:05:18;0.67;;;0.30;;
17145;SDS011;8688;54.444;18.444;2024-03-17T07:07:46;0.40;;;0.20;;
17145;SDS011;8688;54.444;18.444;2024-03-17T07:10:13;1.60;;;0.40;;
17145;SDS011;8688;54.444;18.444;2024-03-17T07:12:42;0.60;;;0.40;;
17145;SDS011;8688;54.444;18.444;2024-03-17T07:15:10;1.03;;;0.30;;
17145;SDS011;8688;54.444;18.444;2024-03-17T07:17:37;1.53;;;0.40;;
17145;SDS011;8688;54.444;18.444;2024-03-17T07:20:05;0.67;;;0.50;;
17145;SDS011;8688;54.444;18.444;2024-03-17T07:22:34;0.40;;;0.30;;
17145;SDS011;8688;54.444;18.444;2024-03-17T07:25:02;0.37;;;0.30;;
17145;SDS011;8688;54.444;18.444;2024-03-17T07:27:30;0.20;;;0.20;;
17145;SDS011;8688;54.444;18.444;2024-03-17T07:29:59;0.40;;;0.20;;
17145;SDS011;8688;54.444;18.444;2024-03-17T07:32:28;0.50;;;0.40;;
17145;SDS011;8688;54.444;18.444;2024-03-17T07:34:56;0.30;;;0.30;;
17145;SDS011;8688;54.444;18.444;2024-03-17T07:37:23;0.50;;;0.30;;
17145;SDS011;8688;54.444;18.444;2024-03-17T07:39:51;0.73;;;0.40;;
17145;SDS011;8688;54.444;18.444;2024-03-17T07:42:18;2.47;;;0.60;;
17145;SDS011;8688;54.444;18.444;2024-03-17T07:44:46;1.90;;;0.40;;
17145;SDS011;8688;54.444;18.444;2024-03-17T07:47:15;0.87;;;0.40;;
17145;SDS011;8688;54.444;18.444;2024-03-17T07:49:45;0.30;;;0.30;;
17145;SDS011;8688;54.444;18.444;2024-03-17T07:52:13;2.47;;;0.50;;
17145;SDS011;8688;54.444;18.444;2024-03-17T07:54:40;1.13;;;0.50;;
17145;SDS011;8688;54.444;18.444;2024-03-17T07:57:08;1.00;;;0.40;;
17145;SDS011;8688;54.444;18.444;2024-03-17T07:59:36;1.43;;;0.50;;
17145;SDS011;8688;54.444;18.444;2024-03-17T08:02:03;1.03;;;0.47;;
17145;SDS011;8688;54.444;18.444;2024-03-17T08:04:33;1.33;;;0.30;;
17145;SDS011;8688;54.444;18.444;2024-03-17T08:07:02;0.47;;;0.30;;
17145;SDS011;8688;54.444;18.444;2024-03-17T08:09:30;2.67;;;0.50;;
17145;SDS011;8688;54.444;18.444;2024-03-17T08:11:58;1.83;;;0.40;;
17145;SDS011;8688;54.444;18.444;2024-03-17T08:14:27;0.53;;;0.33;;
17145;SDS011;8688;54.444;18.444;2024-03-17T08:16:54;2.53;;;0.67;;
17145;SDS011;8688;54.444;18.444;2024-03-17T08:19:22;0.83;;;0.40;;
17145;SDS011;8688;54.444;18.444;2024-03-17T08:21:51;2.47;;;0.50;;
17145;SDS011;8688;54.444;18.444;2024-03-17T08:24:19;1.23;;;0.30;;
17145;SDS011;8688;54.444;18.444;2024-03-17T08:26:46;1.60;;;0.50;;
17145;SDS011;8688;54.444;18.444;2024-03-17T08:29:13;0.57;;;0.40;;
17145;SDS011;8688;54.444;18.444;2024-03-17T08:31:41;1.10;;;0.60;;
17145;SDS011;8688;54.444;18.444;2024-03-17T08:34:10;2.20;;;0.80;;
17145;SDS011;8688;54.444;18.444;2024-03-17T08:36:38;1.90;;;0.90;;
17145;SDS011;8688;54.444;18.444;2024-03-17T08:39:07;0.83;;;0.40;;
17145;SDS011;8688;54.444;18.444;2024-03-17T08:41:36;1.30;;;0.50;;
17145;SDS011;8688;54.444;18.444;2024-03-17T08:44:04;0.67;;;0.30;;
17145;SDS011;8688;54.444;18.444;2024-03-17T08:46:33;2.23;;;0.90;;
17145;SDS011;8688;54.444;18.444;2024-03-17T08:49:00;1.27;;;0.50;;
17145;SDS011;8688;54.444;18.444;2024-03-17T08:51:28;1.40;;;0.40;;
17145;SDS011;8688;54.444;18.444;2024-03-17T08:53:56;2.10;;;0.60;;
17145;SDS011;8688;54.444;18.444;2024-03-17T08:56:26;2.60;;;0.50;;
17145;SDS011;8688;54.444;18.444;2024-03-17T08:58:54;0.90;;;0.30;;
17145;SDS011;8688;54.444;18.444;2024-03-17T09:01:21;0.67;;;0.40;;
17145;SDS011;8688;54.444;18.444;2024-03-17T09:03:49;1.03;;;0.37;;
17145;SDS011;8688;54.444;18.444;2024-03-17T09:06:20;0.60;;;0.40;;
17145;SDS011;8688;54.444;18.444;2024-03-17T09:08:47;1.70;;;0.50;;
17145;SDS011;8688;54.444;18.444;2024-03-17T09:11:15;1.30;;;0.17;;
17145;SDS011;8688;54.444;18.444;2024-03-17T09:13:44;0.87;;;0.23;;
17145;SDS011;8688;54.444;18.444;2024-03-17T09:16:11;0.43;;;0.27;;
17145;SDS011;8688;54.444;18.444;2024-03-17T09:18:39;1.23;;;0.60;;
17145;SDS011;8688;54.444;18.444;2024-03-17T09:21:07;0.93;;;0.33;;
17145;SDS011;8688;54.444;18.444;2024-03-17T09:23:35;1.03;;;0.40;;
17145;SDS011;8688;54.444;18.444;2024-03-17T09:26:04;2.60;;;0.73;;
17145;SDS011;8688;54.444;18.444;2024-03-17T09:28:33;1.80;;;0.60;;
17145;SDS011;8688;54.444;18.444;2024-03-17T09:31:03;4.43;;;0.50;;
17145;SDS011;8688;54.444;18.444;2024-03-17T09:33:32;0.73;;;0.40;;
17145;SDS011;8688;54.444;18.444;2024-03-17T09:36:00;2.83;;;0.80;;
17145;SDS011;8688;54.444;18.444;2024-03-17T09:38:29;3.07;;;0.50;;
17145;SDS011;8688;54.444;18.444;2024-03-17T09:40:57;1.87;;;0.80;;
17145;SDS011;8688;54.444;18.444;2024-03-17T09:43:26;2.77;;;0.70;;
17145;SDS011;8688;54.444;18.444;2024-03-17T09:45:55;3.67;;;0.90;;
17145;SDS011;8688;54.444;18.444;2024-03-17T09:48:25;3.57;;;1.03;;
17145;SDS011;8688;54.444;18.444;2024-03-17T09:50:54;1.50;;;0.90;;
17145;SDS011;8688;54.444;18.444;2024-03-17T09:53:23;3.07;;;0.70;;
17145;SDS011;8688;54.444;18.444;2024-03-17T09:55:52;2.97;;;0.90;;
17145;SDS011;8688;54.444;18.444;2024-03-17T09:58:23;0.53;;;0.40;;
17145;SDS011;8688;54.444;18.444;2024-03-17T10:00:51;1.33;;;0.93;;
17145;SDS011;8688;54.444;18.444;2024-03-17T10:06:10;5.87;;;1.13;;
17145;SDS011;8688;54.444;18.444;2024-03-17T10:08:42;0.73;;;0.37;;
17145;SDS011;8688;54.444;18.444;2024-03-17T10:11:11;1.30;;;0.30;;
17145;SDS011;8688;54.444;18.444;2024-03-17T10:13:41;0.47;;;0.33;;
17145;SDS011;8688;54.444;18.444;2024-03-17T10:16:22;4.33;;;0.73;;
17145;SDS011;8688;54.444;18.444;2024-03-17T10:19:04;0.77;;;0.20;;
17145;SDS011;8688;54.444;18.444;2024-03-17T10:21:35;1.23;;;0.50;;
17145;SDS011;8688;54.444;18.444;2024-03-17T10:24:05;0.40;;;0.30;;
17145;SDS011;8688;54.444;18.444;2024-03-17T10:26:38;2.27;;;0.80;;
17145;SDS011;8688;54.444;18.444;2024-03-17T10:31:58;7.03;;;0.87;;
17145;SDS011;8688;54.444;18.444;2024-03-17T10:34:34;1.07;;;0.70;;
17145;SDS011;8688;54.444;18.444;2024-03-17T10:37:08;2.30;;;0.77;;
17145;SDS011;8688;54.444;18.444;2024-03-17T10:39:37;3.93;;;1.23;;
17145;SDS011;8688;54.444;18.444;2024-03-17T10:42:07;3.00;;;0.93;;
17145;SDS011;8688;54.444;18.444;2024-03-17T10:44:36;1.53;;;0.70;;
17145;SDS011;8688;54.444;18.444;2024-03-17T10:47:05;4.53;;;1.00;;
17145;SDS011;8688;54.444;18.444;2024-03-17T10:49:38;2.70;;;0.80;;
17145;SDS011;8688;54.444;18.444;2024-03-17T10:52:06;2.57;;;0.80;;
17145;SDS011;8688;54.444;18.444;2024-03-17T10:54:43;2.90;;;0.73;;
17145;SDS011;8688;54.444;18.444;2024-03-17T10:57:23;1.20;;;0.60;;
17145;SDS011;8688;54.444;18.444;2024-03-17T10:59:58;2.03;;;0.60;;
17145;SDS011;8688;54.444;18.444;2024-03-17T11:02:29;1.43;;;0.70;;
17145;SDS011;8688;54.444;18.444;2024-03-17T11:05:00;1.67;;;0.60;;
17145;SDS011;8688;54.444;18.444;2024-03-17T11:07:30;1.87;;;0.80;;
17145;SDS011;8688;54.444;18.444;2024-03-17T11:09:59;4.00;;;1.30;;
17145;SDS011;8688;54.444;18.444;2024-03-17T11:21:04;1.37;;;0.60;;
17145;SDS011;8688;54.444;18.444;2024-03-17T11:23:37;2.00;;;1.00;;
17145;SDS011;8688;54.444;18.444;2024-03-17T11:26:05;2.83;;;1.10;;
17145;SDS011;8688;54.444;18.444;2024-03-17T11:28:46;3.10;;;1.30;;
17145;SDS011;8688;54.444;18.444;2024-03-17T11:31:34;2.53;;;1.00;;
17145;SDS011;8688;54.444;18.444;2024-03-17T11:37:06;0.80;;;0.60;;
17145;SDS011;8688;54.444;18.444;2024-03-17T11:39:49;3.43;;;1.00;;
17145;SDS011;8688;54.444;18.444;2024-03-17T11:42:21;2.20;;;0.80;;
17145;SDS011;8688;54.444;18.444;2024-03-17T11:45:00;2.40;;;0.90;;
17145;SDS011;8688;54.444;18.444;2024-03-17T11:47:38;2.50;;;1.00;;
17145;SDS011;8688;54.444;18.444;2024-03-17T11:50:08;1.63;;;1.00;;
17145;SDS011;8688;54.444;18.444;2024-03-17T11:52:38;1.70;;;0.90;;
17145;SDS011;8688;54.444;18.444;2024-03-17T11:55:18;1.10;;;0.70;;
17145;SDS011;8688;54.444;18.444;2024-03-17T11:57:45;2.20;;;0.63;;
17145;SDS011;8688;54.444;18.444;2024-03-17T12:00:18;3.97;;;0.80;;
17145;SDS011;8688;54.444;18.444;2024-03-17T12:02:48;1.73;;;0.60;;
17145;SDS011;8688;54.444;18.444;2024-03-17T12:05:16;1.67;;;0.67;;
17145;SDS011;8688;54.444;18.444;2024-03-17T12:07:44;1.90;;;0.70;;
17145;SDS011;8688;54.444;18.444;2024-03-17T12:10:12;1.73;;;0.63;;
17145;SDS011;8688;54.444;18.444;2024-03-17T12:12:39;1.53;;;0.60;;
17145;SDS011;8688;54.444;18.444;2024-03-17T12:15:17;3.67;;;0.70;;
17145;SDS011;8688;54.444;18.444;2024-03-17T12:17:45;4.43;;;1.10;;
17145;SDS011;8688;54.444;18.444;2024-03-17T12:20:19;3.73;;;0.70;;
17145;SDS011;8688;54.444;18.444;2024-03-17T12:22:48;2.20;;;0.80;;
17145;SDS011;8688;54.444;18.444;2024-03-17T12:25:20;1.63;;;0.50;;
17145;SDS011;8688;54.444;18.444;2024-03-17T12:27:48;0.67;;;0.40;;
17145;SDS011;8688;54.444;18.444;2024-03-17T12:30:16;2.17;;;0.70;;
17145;SDS011;8688;54.444;18.444;2024-03-17T12:32:43;0.93;;;0.40;;
17145;SDS011;8688;54.444;18.444;2024-03-17T12:35:13;0.80;;;0.37;;
17145;SDS011;8688;54.444;18.444;2024-03-17T12:37:43;2.50;;;0.60;;
17145;SDS011;8688;54.444;18.444;2024-03-17T12:40:22;1.30;;;0.37;;
17145;SDS011;8688;54.444;18.444;2024-03-17T12:42:49;0.73;;;0.30;;
17145;SDS011;8688;54.444;18.444;2024-03-17T12:45:21;1.23;;;0.50;;
17145;SDS011;8688;54.444;18.444;2024-03-17T12:47:48;0.60;;;0.43;;
17145;SDS011;8688;54.444;18.444;2024-03-17T12:50:17;1.43;;;0.50;;
17145;SDS011;8688;54.444;18.444;2024-03-17T12:52:51;2.00;;;0.50;;
17145;SDS011;8688;54.444;18.444;2024-03-17T12:55:22;1.03;;;0.43;;
17145;SDS011;8688;54.444;18.444;2024-03-17T12:58:08;1.30;;;0.47;;
17145;SDS011;8688;54.444;18.444;2024-03-17T13:00:58;1.23;;;0.40;;
17145;SDS011;8688;54.444;18.444;2024-03-17T13:03:27;1.17;;;0.50;;
17145;SDS011;8688;54.444;18.444;2024-03-17T13:05:57;3.50;;;0.60;;
17145;SDS011;8688;54.444;18.444;2024-03-17T13:08:25;1.50;;;0.57;;
17145;SDS011;8688;54.444;18.444;2024-03-17T13:10:55;2.53;;;0.80;;
17145;SDS011;8688;54.444;18.444;2024-03-17T13:13:22;2.37;;;0.70;;
17145;SDS011;8688;54.444;18.444;2024-03-17T13:15:50;3.20;;;0.60;;
17145;SDS011;8688;54.444;18.444;2024-03-17T13:18:19;1.60;;;0.43;;
17145;SDS011;8688;54.444;18.444;2024-03-17T13:20:47;0.73;;;0.40;;
17145;SDS011;8688;54.444;18.444;2024-03-17T13:23:16;3.33;;;0.87;;
17145;SDS011;8688;54.444;18.444;2024-03-17T13:25:46;9.27;;;2.50;;
17145;SDS011;8688;54.444;18.444;2024-03-17T13:28:16;1.47;;;0.70;;
17145;SDS011;8688;54.444;18.444;2024-03-17T13:30:43;2.67;;;0.50;;
17145;SDS011;8688;54.444;18.444;2024-03-17T13:33:13;2.00;;;0.40;;
17145;SDS011;8688;54.444;18.444;2024-03-17T13:35:41;2.40;;;0.63;;
17145;SDS011;8688;54.444;18.444;2024-03-17T13:38:09;3.13;;;0.90;;
17145;SDS011;8688;54.444;18.444;2024-03-17T13:40:37;1.50;;;0.50;;
17145;SDS011;8688;54.444;18.444;2024-03-17T13:43:07;0.87;;;0.40;;
17145;SDS011;8688;54.444;18.444;2024-03-17T13:45:39;2.07;;;0.63;;
17145;SDS011;8688;54.444;18.444;2024-03-17T13:48:08;3.20;;;0.60;;
17145;SDS011;8688;54.444;18.444;2024-03-17T13:50:37;2.57;;;0.90;;
17145;SDS011;8688;54.444;18.444;2024-03-17T13:53:07;4.00;;;0.47;;
17145;SDS011;8688;54.444;18.444;2024-03-17T13:55:35;1.10;;;0.40;;
17145;SDS011;8688;54.444;18.444;2024-03-17T13:58:03;1.73;;;0.47;;
17145;SDS011;8688;54.444;18.444;2024-03-17T14:00:31;2.17;;;0.60;;
17145;SDS011;8688;54.444;18.444;2024-03-17T14:03:05;0.93;;;0.27;;
17145;SDS011;8688;54.444;18.444;2024-03-17T14:05:34;3.93;;;0.80;;
17145;SDS011;8688;54.444;18.444;2024-03-17T14:08:02;2.73;;;0.40;;
17145;SDS011;8688;54.444;18.444;2024-03-17T14:10:30;3.23;;;0.80;;
17145;SDS011;8688;54.444;18.444;2024-03-17T14:12:58;0.83;;;0.43;;
17145;SDS011;8688;54.444;18.444;2024-03-17T14:15:26;1.60;;;0.60;;
17145;SDS011;8688;54.444;18.444;2024-03-17T14:17:54;1.00;;;0.57;;
17145;SDS011;8688;54.444;18.444;2024-03-17T14:20:23;2.30;;;0.27;;
17145;SDS011;8688;54.444;18.444;2024-03-17T14:22:51;2.53;;;0.60;;
17145;SDS011;8688;54.444;18.444;2024-03-17T14:25:21;1.20;;;0.60;;
17145;SDS011;8688;54.444;18.444;2024-03-17T14:27:50;1.73;;;0.70;;
17145;SDS011;8688;54.444;18.444;2024-03-17T14:30:18;2.10;;;0.70;;
17145;SDS011;8688;54.444;18.444;2024-03-17T14:32:47;7.50;;;0.70;;
17145;SDS011;8688;54.444;18.444;2024-03-17T14:35:15;4.13;;;0.80;;
17145;SDS011;8688;54.444;18.444;2024-03-17T14:37:47;1.13;;;0.57;;
17145;SDS011;8688;54.444;18.444;2024-03-17T14:40:16;1.23;;;0.53;;
17145;SDS011;8688;54.444;18.444;2024-03-17T14:42:47;2.23;;;0.63;;
17145;SDS011;8688;54.444;18.444;2024-03-17T14:45:16;1.90;;;0.40;;
17145;SDS011;8688;54.444;18.444;2024-03-17T14:47:44;1.87;;;0.70;;
17145;SDS011;8688;54.444;18.444;2024-03-17T14:50:11;2.10;;;0.87;;
17145;SDS011;8688;54.444;18.444;2024-03-17T14:52:41;1.90;;;0.60;;
17145;SDS011;8688;54.444;18.444;2024-03-17T14:55:11;2.30;;;0.90;;
17145;SDS011;8688;54.444;18.444;2024-03-17T14:57:39;2.00;;;1.00;;
17145;SDS011;8688;54.444;18.444;2024-03-17T15:00:07;0.23;;;0.17;;
17145;SDS011;8688;54.444;18.444;2024-03-17T15:02:41;2.00;;;0.60;;
17145;SDS011;8688;54.444;18.444;2024-03-17T15:05:10;3.90;;;0.60;;
17145;SDS011;8688;54.444;18.444;2024-03-17T15:07:37;0.77;;;0.30;;
17145;SDS011;8688;54.444;18.444;2024-03-17T15:10:06;0.63;;;0.50;;
17145;SDS011;8688;54.444;18.444;2024-03-17T15:12:36;2.30;;;0.73;;
17145;SDS011;8688;54.444;18.444;2024-03-17T15:15:05;1.83;;;0.70;;
17145;SDS011;8688;54.444;18.444;2024-03-17T15:17:35;8.77;;;3.10;;